createdAt,value
2024-03-01T00:00:41.826Z,8.60
2024-03-01T00:01:38.541Z,8.63
2024-03-01T00:02:35.363Z,8.74
2024-03-01T00:03:32.302Z,8.52
2024-03-01T00:04:29.122Z,8.55
2024-03-01T00:05:25.824Z,8.61
2024-03-01T00:06:22.477Z,8.63
2024-03-01T00:07:19.138Z,8.46
2024-03-01T00:08:15.796Z,8.51
2024-03-01T00:09:12.438Z,8.72
2024-03-01T00:10:10.018Z,8.83
2024-03-01T00:11:06.976Z,8.50
2024-03-01T00:12:03.858Z,8.43
2024-03-01T00:13:00.527Z,8.48
2024-03-01T00:13:57.128Z,8.48
2024-03-01T00:14:53.999Z,8.59
2024-03-01T00:15:50.672Z,8.66
2024-03-01T00:16:47.372Z,8.51
2024-03-01T00:17:44.093Z,8.27
2024-03-01T00:18:40.667Z,8.37
2024-03-01T00:19:37.277Z,8.56
2024-03-01T00:20:33.928Z,8.51
2024-03-01T00:21:30.576Z,8.67
2024-03-01T00:22:27.636Z,8.65
2024-03-01T00:23:24.467Z,8.74
2024-03-01T00:24:21.084Z,8.69
2024-03-01T00:25:17.958Z,8.81
2024-03-01T00:26:15.202Z,8.69
2024-03-01T00:27:11.885Z,8.51
2024-03-01T00:28:08.528Z,8.53
2024-03-01T00:29:05.126Z,8.53
2024-03-01T00:30:03.934Z,8.63
2024-03-01T00:31:00.545Z,8.62
2024-03-01T00:31:57.196Z,8.54
2024-03-01T00:32:53.868Z,8.56
2024-03-01T00:33:50.584Z,8.46
2024-03-01T00:34:47.319Z,8.47
2024-03-01T00:35:45.272Z,8.54
2024-03-01T00:36:41.930Z,8.57
2024-03-01T00:37:38.647Z,8.55
2024-03-01T00:38:35.369Z,8.67
2024-03-01T00:39:32.245Z,8.76
2024-03-01T00:40:28.991Z,8.87
2024-03-01T00:41:26.131Z,8.69
2024-03-01T00:42:22.752Z,8.69
2024-03-01T00:43:20.113Z,8.59
2024-03-01T00:44:16.817Z,8.51
2024-03-01T00:45:13.512Z,8.54
2024-03-01T00:46:10.216Z,8.55
2024-03-01T00:47:07.627Z,8.74
2024-03-01T00:48:14.887Z,8.81
2024-03-01T00:49:12.082Z,8.86
2024-03-01T00:50:09.437Z,8.79
2024-03-01T00:51:06.466Z,8.78
2024-03-01T00:52:03.385Z,8.72
2024-03-01T00:53:00.345Z,8.72
2024-03-01T00:53:57.045Z,8.66
2024-03-01T00:54:53.794Z,8.63
2024-03-01T00:55:50.980Z,8.73
2024-03-01T00:56:47.740Z,8.83
2024-03-01T00:57:44.942Z,8.62
2024-03-01T00:58:41.637Z,8.54
2024-03-01T00:59:38.556Z,8.59
2024-03-01T01:00:35.264Z,8.68
2024-03-01T01:01:31.974Z,8.60
2024-03-01T01:02:39.893Z,8.72
2024-03-01T01:03:38.799Z,8.66
2024-03-01T01:04:35.932Z,8.54
2024-03-01T01:05:33.053Z,8.66
2024-03-01T01:06:29.796Z,8.60
2024-03-01T01:07:26.517Z,8.81
2024-03-01T01:08:25.571Z,8.75
2024-03-01T01:09:22.214Z,8.89
2024-03-01T01:10:19.065Z,8.69
2024-03-01T01:11:15.780Z,8.92
2024-03-01T01:12:12.475Z,8.81
2024-03-01T01:13:09.215Z,8.72
2024-03-01T01:14:05.975Z,8.90
2024-03-01T01:15:02.816Z,8.67
2024-03-01T01:15:59.631Z,8.88
2024-03-01T01:16:56.429Z,8.85
2024-03-01T01:17:53.113Z,8.78
2024-03-01T01:18:50.004Z,8.53
2024-03-01T01:19:46.775Z,8.61
2024-03-01T01:20:44.052Z,8.61
2024-03-01T01:21:40.812Z,8.71
2024-03-01T01:22:37.440Z,8.77
2024-03-01T01:23:34.138Z,8.94
2024-03-01T01:24:30.865Z,8.93
2024-03-01T01:25:27.659Z,8.78
2024-03-01T01:26:24.385Z,8.66
2024-03-01T01:27:21.059Z,8.66
2024-03-01T01:28:17.859Z,8.95
2024-03-01T01:29:14.834Z,8.78
2024-03-01T01:30:12.241Z,8.89
2024-03-01T01:31:09.577Z,8.76
2024-03-01T01:32:06.567Z,8.87
2024-03-01T01:33:03.280Z,8.84
2024-03-01T01:34:00.114Z,8.57
2024-03-01T01:34:56.868Z,8.47
2024-03-01T01:35:54.039Z,8.59
2024-03-01T01:36:50.760Z,8.58
2024-03-01T01:37:47.415Z,8.58
2024-03-01T01:38:44.208Z,8.51
2024-03-01T01:39:40.867Z,8.54
2024-03-01T01:40:37.653Z,8.64
2024-03-01T01:41:36.750Z,8.65
2024-03-01T01:42:33.604Z,8.76
2024-03-01T01:43:30.721Z,8.49
2024-03-01T01:44:27.443Z,8.66
2024-03-01T01:45:24.092Z,8.48
2024-03-01T01:46:20.847Z,8.60
2024-03-01T01:47:18.306Z,8.79
2024-03-01T01:48:15.359Z,8.88
2024-03-01T01:49:12.241Z,8.79
2024-03-01T01:50:10.492Z,8.81
2024-03-01T01:51:08.158Z,8.72
2024-03-01T01:52:04.977Z,8.76
2024-03-01T01:53:12.870Z,8.76
2024-03-01T01:54:13.704Z,8.51
2024-03-01T01:55:12.439Z,8.53
2024-03-01T01:56:09.187Z,8.54
2024-03-01T01:57:06.122Z,8.65
2024-03-01T01:58:03.142Z,8.69
2024-03-01T01:58:59.875Z,8.50
2024-03-01T01:59:58.666Z,8.43
2024-03-01T02:00:56.162Z,8.39
2024-03-01T02:01:53.313Z,8.18
2024-03-01T02:02:52.119Z,8.58
2024-03-01T02:03:49.190Z,8.49
2024-03-01T02:04:46.255Z,8.69
2024-03-01T02:05:42.995Z,8.68
2024-03-01T02:06:39.728Z,8.61
2024-03-01T02:07:38.102Z,8.64
2024-03-01T02:08:37.041Z,8.76
2024-03-01T02:09:33.795Z,8.67
2024-03-01T02:10:30.732Z,8.59
2024-03-01T02:11:27.577Z,8.49
2024-03-01T02:12:24.399Z,8.46
2024-03-01T02:13:24.089Z,8.51
2024-03-01T02:14:21.627Z,8.51
2024-03-01T02:15:18.427Z,8.67
2024-03-01T02:16:15.246Z,8.56
2024-03-01T02:17:11.994Z,8.55
2024-03-01T02:18:08.831Z,8.60
2024-03-01T02:19:12.153Z,8.45
2024-03-01T02:20:09.862Z,8.38
2024-03-01T02:21:14.655Z,8.29
2024-03-01T02:22:18.696Z,8.49
2024-03-01T02:23:25.565Z,8.47
2024-03-01T02:24:22.953Z,8.40
2024-03-01T02:25:19.648Z,8.38
2024-03-01T02:26:16.396Z,8.36
2024-03-01T02:27:13.117Z,8.56
2024-03-01T02:28:09.999Z,8.54
2024-03-01T02:29:06.647Z,8.49
2024-03-01T02:30:04.275Z,8.30
2024-03-01T02:31:01.066Z,8.47
2024-03-01T02:31:57.721Z,8.44
2024-03-01T02:32:54.405Z,8.41
2024-03-01T02:33:51.143Z,8.38
2024-03-01T02:34:47.878Z,8.49
2024-03-01T02:35:44.603Z,8.49
2024-03-01T02:36:41.519Z,8.37
2024-03-01T02:37:38.616Z,8.39
2024-03-01T02:38:35.587Z,8.49
2024-03-01T02:39:32.261Z,8.44
2024-03-01T02:40:29.213Z,8.41
2024-03-01T02:41:25.992Z,8.41
2024-03-01T02:42:22.836Z,8.31
2024-03-01T02:43:19.532Z,8.37
2024-03-01T02:44:16.217Z,8.37
2024-03-01T02:45:12.957Z,8.19
2024-03-01T02:46:09.646Z,8.31
2024-03-01T02:47:06.509Z,8.22
2024-03-01T02:48:04.374Z,8.24
2024-03-01T02:49:01.104Z,8.56
2024-03-01T02:49:57.832Z,8.44
2024-03-01T02:50:54.455Z,8.34
2024-03-01T02:51:51.180Z,8.33
2024-03-01T02:52:47.809Z,8.44
2024-03-01T02:53:47.176Z,8.34
2024-03-01T02:54:43.777Z,8.28
2024-03-01T02:55:40.484Z,8.17
2024-03-01T02:56:37.279Z,8.30
2024-03-01T02:57:35.037Z,8.18
2024-03-01T02:58:31.911Z,8.18
2024-03-01T02:59:28.667Z,8.28
2024-03-01T03:00:25.764Z,8.35
2024-03-01T03:01:24.738Z,8.31
2024-03-01T03:02:21.629Z,8.33
2024-03-01T03:03:18.402Z,8.21
2024-03-01T03:04:15.129Z,8.21
2024-03-01T03:05:12.274Z,8.24
2024-03-01T03:06:08.987Z,8.22
2024-03-01T03:07:10.460Z,8.30
2024-03-01T03:08:08.109Z,8.18
2024-03-01T03:09:10.651Z,8.04
2024-03-01T03:10:08.294Z,8.10
2024-03-01T03:11:05.312Z,8.13
2024-03-01T03:12:03.001Z,8.18
2024-03-01T03:13:01.459Z,8.31
2024-03-01T03:13:58.248Z,8.13
2024-03-01T03:14:54.858Z,8.06
2024-03-01T03:15:51.650Z,8.14
2024-03-01T03:16:52.035Z,8.09
2024-03-01T03:17:48.910Z,8.03
2024-03-01T03:18:45.545Z,7.99
2024-03-01T03:19:43.569Z,7.91
2024-03-01T03:20:40.213Z,7.94
2024-03-01T03:21:37.197Z,8.06
2024-03-01T03:22:33.869Z,7.93
2024-03-01T03:23:30.586Z,7.96
2024-03-01T03:24:27.271Z,7.96
2024-03-01T03:25:24.546Z,8.01
2024-03-01T03:26:21.260Z,7.98
2024-03-01T03:27:17.879Z,8.22
2024-03-01T03:28:16.304Z,8.09
2024-03-01T03:29:13.174Z,7.97
2024-03-01T03:30:10.277Z,7.84
2024-03-01T03:31:07.078Z,7.90
2024-03-01T03:32:06.820Z,8.04
2024-03-01T03:33:04.988Z,8.15
2024-03-01T03:34:01.847Z,8.25
2024-03-01T03:34:58.521Z,8.26
2024-03-01T03:35:55.183Z,8.24
2024-03-01T03:36:51.862Z,8.19
2024-03-01T03:37:48.625Z,8.15
2024-03-01T03:38:45.278Z,7.99
2024-03-01T03:39:41.966Z,7.89
2024-03-01T03:40:38.978Z,7.89
2024-03-01T03:41:36.127Z,7.99
2024-03-01T03:42:32.722Z,7.86
2024-03-01T03:43:29.427Z,7.80
2024-03-01T03:44:26.140Z,7.73
2024-03-01T03:45:22.805Z,7.89
2024-03-01T03:46:19.952Z,7.78
2024-03-01T03:47:16.583Z,7.99
2024-03-01T03:48:13.185Z,7.95
2024-03-01T03:49:12.108Z,7.95
2024-03-01T03:50:09.649Z,7.26
2024-03-01T03:51:06.314Z,7.66
2024-03-01T03:52:03.311Z,7.70
2024-03-01T03:52:59.985Z,7.73
2024-03-01T03:53:57.559Z,7.72
2024-03-01T03:54:54.227Z,7.98
2024-03-01T03:55:50.877Z,7.67
2024-03-01T03:56:47.454Z,7.77
2024-03-01T03:57:44.949Z,7.93
2024-03-01T03:58:41.536Z,7.94
2024-03-01T03:59:38.297Z,7.80
2024-03-01T04:00:34.950Z,7.68
2024-03-01T04:01:31.635Z,7.67
2024-03-01T04:02:28.352Z,7.79
2024-03-01T04:03:25.123Z,7.93
2024-03-01T04:04:21.812Z,7.59
2024-03-01T04:05:18.433Z,7.49
2024-03-01T04:06:15.677Z,7.60
2024-03-01T04:07:12.294Z,7.65
2024-03-01T04:08:08.946Z,7.69
2024-03-01T04:09:05.528Z,7.64
2024-03-01T04:10:02.318Z,7.55
2024-03-01T04:10:59.074Z,7.68
2024-03-01T04:11:56.832Z,7.65
2024-03-01T04:12:53.466Z,7.56
2024-03-01T04:13:50.193Z,7.55
2024-03-01T04:14:46.897Z,7.59
2024-03-01T04:15:44.521Z,7.58
2024-03-01T04:16:41.352Z,7.18
2024-03-01T04:17:38.392Z,7.33
2024-03-01T04:18:35.520Z,7.37
2024-03-01T04:19:32.594Z,7.64
2024-03-01T04:20:29.259Z,7.41
2024-03-01T04:21:26.019Z,7.28
2024-03-01T04:22:22.717Z,6.93
2024-03-01T04:23:19.396Z,6.98
2024-03-01T04:24:16.996Z,6.89
2024-03-01T04:25:13.597Z,6.89
2024-03-01T04:26:10.852Z,6.91
2024-03-01T04:27:07.672Z,7.00
2024-03-01T04:28:04.791Z,7.07
2024-03-01T04:29:01.484Z,6.96
2024-03-01T04:29:58.428Z,6.89
2024-03-01T04:30:55.832Z,6.81
2024-03-01T04:31:52.767Z,6.74
2024-03-01T04:32:49.440Z,6.73
2024-03-01T04:33:48.118Z,6.74
2024-03-01T04:34:46.013Z,6.70
2024-03-01T04:35:42.886Z,6.66
2024-03-01T04:36:40.290Z,6.61
2024-03-01T04:37:37.055Z,6.88
2024-03-01T04:38:34.069Z,6.63
2024-03-01T04:39:31.135Z,6.92
2024-03-01T04:40:27.691Z,6.98
2024-03-01T04:41:24.350Z,6.74
2024-03-01T04:42:21.094Z,6.61
2024-03-01T04:43:17.711Z,6.78
2024-03-01T04:44:14.364Z,6.91
2024-03-01T04:45:11.245Z,6.95
2024-03-01T04:46:07.949Z,6.92
2024-03-01T04:47:04.815Z,6.67
2024-03-01T04:48:01.746Z,6.58
2024-03-01T04:48:58.595Z,6.77
2024-03-01T04:49:55.404Z,6.86
2024-03-01T04:50:52.119Z,7.15
2024-03-01T04:51:48.774Z,6.97
2024-03-01T04:52:45.480Z,6.74
2024-03-01T04:53:42.487Z,6.80
2024-03-01T04:54:39.298Z,6.76
2024-03-01T04:55:36.057Z,6.57
2024-03-01T04:56:32.905Z,6.79
2024-03-01T04:57:29.582Z,6.59
2024-03-01T04:58:26.238Z,6.62
2024-03-01T04:59:22.903Z,6.77
2024-03-01T05:00:22.742Z,6.66
2024-03-01T05:01:19.623Z,6.63
2024-03-01T05:02:16.288Z,6.60
2024-03-01T05:03:13.737Z,6.59
2024-03-01T05:04:11.160Z,6.76
2024-03-01T05:05:11.802Z,6.78
2024-03-01T05:06:09.995Z,6.75
2024-03-01T05:07:06.679Z,6.73
2024-03-01T05:08:04.263Z,6.76
2024-03-01T05:09:00.999Z,6.84
2024-03-01T05:09:57.646Z,6.93
2024-03-01T05:10:54.633Z,6.97
2024-03-01T05:11:51.498Z,6.76
2024-03-01T05:12:48.563Z,6.94
2024-03-01T05:13:45.166Z,6.86
2024-03-01T05:14:42.375Z,6.85
2024-03-01T05:15:39.822Z,6.88
2024-03-01T05:16:36.643Z,7.06
2024-03-01T05:17:34.018Z,6.98
2024-03-01T05:18:30.662Z,6.82
2024-03-01T05:19:27.354Z,6.90
2024-03-01T05:20:24.108Z,6.86
2024-03-01T05:21:23.854Z,6.68
2024-03-01T05:22:20.520Z,6.68
2024-03-01T05:23:17.150Z,6.69
2024-03-01T05:24:13.746Z,6.76
2024-03-01T05:25:17.167Z,6.95
2024-03-01T05:26:14.280Z,7.02
2024-03-01T05:27:16.691Z,7.03
2024-03-01T05:28:13.244Z,7.03
2024-03-01T05:29:09.878Z,6.98
2024-03-01T05:30:09.634Z,6.85
2024-03-01T05:31:14.977Z,6.99
2024-03-01T05:32:18.008Z,7.24
2024-03-01T05:33:14.782Z,7.04
2024-03-01T05:34:11.755Z,7.08
2024-03-01T05:35:09.274Z,7.06
2024-03-01T05:36:07.209Z,6.98
2024-03-01T05:37:04.014Z,6.91
2024-03-01T05:38:00.743Z,6.96
2024-03-01T05:38:57.491Z,6.97
2024-03-01T05:39:54.171Z,7.10
2024-03-01T05:40:52.658Z,7.06
2024-03-01T05:41:52.006Z,7.03
2024-03-01T05:42:48.666Z,6.99
2024-03-01T05:43:45.300Z,7.12
2024-03-01T05:44:41.885Z,7.13
2024-03-01T05:45:38.479Z,7.33
2024-03-01T05:46:35.104Z,7.43
2024-03-01T05:47:31.766Z,7.33
2024-03-01T05:48:28.477Z,7.38
2024-03-01T05:49:25.234Z,7.36
2024-03-01T05:50:21.978Z,7.35
2024-03-01T05:51:18.552Z,7.36
2024-03-01T05:52:16.361Z,7.42
2024-03-01T05:53:17.079Z,7.47
2024-03-01T05:54:14.646Z,7.48
2024-03-01T05:55:15.355Z,7.23
2024-03-01T05:56:19.237Z,7.32
2024-03-01T05:57:17.155Z,7.39
2024-03-01T05:58:13.864Z,7.32
2024-03-01T05:59:10.917Z,7.36
2024-03-01T06:00:26.489Z,7.42
2024-03-01T06:01:24.434Z,7.14
2024-03-01T06:02:22.581Z,7.10
2024-03-01T06:03:19.179Z,7.14
2024-03-01T06:04:16.038Z,7.19
2024-03-01T06:05:12.988Z,7.25
2024-03-01T06:06:10.847Z,7.23
2024-03-01T06:07:08.650Z,7.13
2024-03-01T06:08:05.809Z,7.11
2024-03-01T06:09:02.888Z,7.37
2024-03-01T06:09:59.583Z,7.37
2024-03-01T06:10:56.301Z,7.62
2024-03-01T06:11:52.988Z,7.66
2024-03-01T06:12:49.584Z,7.68
2024-03-01T06:13:46.432Z,7.66
2024-03-01T06:14:43.253Z,7.80
2024-03-01T06:15:40.269Z,7.79
2024-03-01T06:16:36.961Z,7.88
2024-03-01T06:17:34.074Z,7.55
2024-03-01T06:18:30.740Z,7.56
2024-03-01T06:19:27.683Z,7.76
2024-03-01T06:20:24.492Z,7.55
2024-03-01T06:21:22.006Z,7.63
2024-03-01T06:22:18.660Z,7.57
2024-03-01T06:23:15.662Z,7.71
2024-03-01T06:24:12.754Z,7.77
2024-03-01T06:25:09.918Z,7.82
2024-03-01T06:26:06.770Z,7.77
2024-03-01T06:27:04.148Z,7.98
2024-03-01T06:28:00.960Z,7.96
2024-03-01T06:28:57.743Z,7.62
2024-03-01T06:29:54.330Z,7.64
2024-03-01T06:30:51.161Z,7.58
2024-03-01T06:31:48.044Z,7.78
2024-03-01T06:32:44.897Z,7.70
2024-03-01T06:33:42.328Z,7.82
2024-03-01T06:34:39.602Z,7.81
2024-03-01T06:35:36.373Z,7.83
2024-03-01T06:36:33.057Z,7.98
2024-03-01T06:37:29.969Z,7.85
2024-03-01T06:38:26.629Z,7.90
2024-03-01T06:39:23.286Z,8.10
2024-03-01T06:40:20.425Z,7.97
2024-03-01T06:41:17.151Z,7.94
2024-03-01T06:42:13.769Z,7.92
2024-03-01T06:43:10.450Z,7.91
2024-03-01T06:44:07.550Z,7.85
2024-03-01T06:45:07.102Z,7.90
2024-03-01T06:46:08.612Z,7.84
2024-03-01T06:47:11.311Z,7.75
2024-03-01T06:48:17.496Z,7.87
2024-03-01T06:49:15.798Z,7.89
2024-03-01T06:50:12.506Z,7.80
2024-03-01T06:51:09.472Z,7.80
2024-03-01T06:52:06.421Z,7.81
2024-03-01T06:53:03.124Z,8.03
2024-03-01T06:53:59.813Z,8.11
2024-03-01T06:54:57.532Z,8.24
2024-03-01T06:55:56.337Z,8.15
2024-03-01T06:56:53.035Z,8.46
2024-03-01T06:57:49.790Z,8.56
2024-03-01T06:58:46.396Z,8.19
2024-03-01T06:59:43.017Z,8.12
2024-03-01T07:00:39.729Z,8.02
2024-03-01T07:01:36.852Z,7.96
2024-03-01T07:02:33.605Z,7.97
2024-03-01T07:03:30.185Z,8.25
2024-03-01T07:04:26.804Z,8.29
2024-03-01T07:05:23.605Z,8.18
2024-03-01T07:06:20.229Z,8.24
2024-03-01T07:07:19.651Z,8.09
2024-03-01T07:08:16.317Z,8.04
2024-03-01T07:09:13.021Z,8.19
2024-03-01T07:10:09.643Z,8.31
2024-03-01T07:11:06.461Z,8.34
2024-03-01T07:12:03.246Z,8.23
2024-03-01T07:12:59.909Z,8.11
2024-03-01T07:13:56.777Z,8.16
2024-03-01T07:14:53.377Z,8.23
2024-03-01T07:15:50.010Z,8.35
2024-03-01T07:16:46.625Z,8.31
2024-03-01T07:17:43.338Z,8.17
2024-03-01T07:18:40.086Z,8.20
2024-03-01T07:19:36.775Z,8.55
2024-03-01T07:20:33.413Z,8.45
2024-03-01T07:21:30.047Z,8.66
2024-03-01T07:22:27.297Z,8.34
2024-03-01T07:23:23.929Z,8.28
2024-03-01T07:24:20.609Z,8.16
2024-03-01T07:25:17.940Z,8.17
2024-03-01T07:26:14.632Z,8.31
2024-03-01T07:27:11.226Z,8.38
2024-03-01T07:28:07.907Z,8.44
2024-03-01T07:29:04.540Z,8.54
2024-03-01T07:30:02.195Z,8.73
2024-03-01T07:30:58.860Z,8.39
2024-03-01T07:31:55.882Z,8.40
2024-03-01T07:32:54.576Z,8.42
2024-03-01T07:33:51.227Z,8.36
2024-03-01T07:34:47.823Z,8.40
2024-03-01T07:35:44.505Z,8.47
2024-03-01T07:36:41.170Z,8.24
2024-03-01T07:37:38.066Z,8.46
2024-03-01T07:38:34.724Z,8.66
2024-03-01T07:39:31.378Z,8.81
2024-03-01T07:40:28.010Z,8.84
2024-03-01T07:41:24.797Z,8.64
2024-03-01T07:42:21.398Z,8.50
2024-03-01T07:43:18.264Z,8.65
2024-03-01T07:44:14.998Z,8.68
2024-03-01T07:45:11.776Z,8.66
2024-03-01T07:46:08.423Z,8.63
2024-03-01T07:47:05.385Z,8.62
2024-03-01T07:48:02.556Z,8.81
2024-03-01T07:48:59.212Z,8.86
2024-03-01T07:49:55.862Z,8.85
2024-03-01T07:50:52.563Z,8.86
2024-03-01T07:51:52.242Z,8.62
2024-03-01T07:52:48.902Z,8.61
2024-03-01T07:53:48.232Z,8.68
2024-03-01T07:54:44.986Z,8.71
2024-03-01T07:55:41.667Z,8.69
2024-03-01T07:56:38.673Z,8.84
2024-03-01T07:57:35.399Z,8.79
2024-03-01T07:58:35.196Z,8.71
2024-03-01T07:59:31.995Z,8.76
2024-03-01T08:00:28.775Z,8.79
2024-03-01T08:01:27.075Z,8.83
2024-03-01T08:02:23.793Z,8.92
2024-03-01T08:03:20.444Z,8.73
2024-03-01T08:04:17.203Z,8.81
2024-03-01T08:05:13.906Z,8.71
2024-03-01T08:06:10.597Z,8.65
2024-03-01T08:07:09.127Z,8.77
2024-03-01T08:08:09.148Z,8.69
2024-03-01T08:09:11.371Z,8.62
2024-03-01T08:10:14.857Z,8.70
2024-03-01T08:11:22.580Z,8.66
2024-03-01T08:12:21.989Z,8.53
2024-03-01T08:13:18.886Z,8.59
2024-03-01T08:14:31.099Z,8.63
2024-03-01T08:15:29.746Z,8.51
2024-03-01T08:16:27.228Z,8.68
2024-03-01T08:17:28.909Z,8.65
2024-03-01T08:18:26.288Z,8.71
2024-03-01T08:19:36.683Z,8.79
2024-03-01T08:21:07.008Z,8.49
2024-03-01T08:22:16.040Z,8.63
2024-03-01T08:23:13.253Z,8.38
2024-03-01T08:24:11.212Z,8.45
2024-03-01T08:25:10.771Z,8.65
2024-03-01T08:26:18.058Z,8.80
2024-03-01T08:27:18.078Z,8.61
2024-03-01T08:28:21.502Z,8.72
2024-03-01T08:29:18.876Z,8.71
2024-03-01T08:30:38.469Z,8.72
2024-03-01T08:31:36.930Z,8.78
2024-03-01T08:32:43.633Z,8.66
2024-03-01T08:33:41.308Z,8.55
2024-03-01T08:34:53.143Z,8.81
2024-03-01T08:35:50.276Z,8.72
2024-03-01T08:36:47.213Z,8.71
2024-03-01T08:37:44.000Z,8.66
2024-03-01T08:38:44.776Z,8.57
2024-03-01T08:39:41.959Z,8.62
2024-03-01T08:40:58.380Z,8.80
2024-03-01T08:41:57.221Z,8.75
2024-03-01T08:42:53.909Z,8.67
2024-03-01T08:43:50.958Z,8.82
2024-03-01T08:45:00.664Z,8.74
2024-03-01T08:46:02.772Z,8.60
2024-03-01T08:46:59.576Z,8.83
2024-03-01T08:48:07.679Z,8.78
2024-03-01T08:49:38.448Z,9.12
2024-03-01T08:50:42.546Z,9.05
2024-03-01T08:51:39.204Z,8.93
2024-03-01T08:52:39.431Z,9.02
2024-03-01T08:53:54.928Z,8.92
2024-03-01T08:54:57.058Z,8.94
2024-03-01T08:55:53.788Z,9.02
2024-03-01T08:57:06.659Z,9.08
2024-03-01T08:58:03.518Z,9.02
2024-03-01T08:59:01.925Z,8.79
2024-03-01T08:59:58.566Z,8.72
2024-03-01T09:00:56.955Z,8.97
2024-03-01T09:01:53.990Z,9.09
2024-03-01T09:02:50.934Z,9.10
2024-03-01T09:03:49.804Z,9.09
2024-03-01T09:04:46.599Z,9.18
2024-03-01T09:05:43.406Z,9.10
2024-03-01T09:06:41.205Z,9.00
2024-03-01T09:07:38.764Z,8.86
2024-03-01T09:08:37.427Z,8.90
2024-03-01T09:09:34.189Z,8.81
2024-03-01T09:10:35.707Z,8.96
2024-03-01T09:11:33.704Z,9.08
2024-03-01T09:12:30.381Z,9.01
2024-03-01T09:13:28.390Z,9.01
2024-03-01T09:14:30.809Z,8.79
2024-03-01T09:15:37.465Z,9.02
2024-03-01T09:16:34.147Z,9.11
2024-03-01T09:17:34.274Z,8.77
2024-03-01T09:18:44.930Z,8.75
2024-03-01T09:19:48.751Z,8.69
2024-03-01T09:20:48.220Z,8.78
2024-03-01T09:21:47.870Z,8.82
2024-03-01T09:22:44.668Z,8.83
2024-03-01T09:23:41.319Z,8.70
2024-03-01T09:24:39.976Z,8.61
2024-03-01T09:25:43.308Z,8.95
2024-03-01T09:26:40.596Z,8.74
2024-03-01T09:27:37.319Z,8.90
2024-03-01T09:28:34.618Z,8.83
2024-03-01T09:29:38.964Z,8.82
2024-03-01T09:30:35.719Z,8.82
2024-03-01T09:31:33.435Z,9.02
2024-03-01T09:32:34.145Z,8.80
2024-03-01T09:33:31.173Z,9.01
2024-03-01T09:34:33.669Z,9.01
2024-03-01T09:35:31.222Z,8.97
2024-03-01T09:36:27.956Z,8.93
2024-03-01T09:37:24.799Z,8.88
2024-03-01T09:38:26.535Z,8.76
2024-03-01T09:39:23.237Z,8.88
2024-03-01T09:40:34.935Z,9.02
2024-03-01T09:41:45.105Z,8.94
2024-03-01T09:42:56.683Z,9.09
2024-03-01T09:44:13.389Z,9.14
2024-03-01T09:45:10.107Z,9.26
2024-03-01T09:46:42.284Z,9.45
2024-03-01T09:48:06.565Z,9.10
2024-03-01T09:49:45.605Z,9.38
2024-03-01T09:51:05.694Z,9.12
2024-03-01T09:52:21.288Z,9.27
2024-03-01T09:53:27.157Z,9.22
2024-03-01T09:54:31.464Z,9.26
2024-03-01T09:55:42.679Z,9.26
2024-03-01T09:56:49.568Z,9.29
2024-03-01T09:58:04.356Z,9.62
2024-03-01T09:59:07.039Z,9.54
2024-03-01T10:00:07.304Z,9.50
2024-03-01T10:01:27.875Z,9.76
2024-03-01T10:02:34.427Z,9.93
2024-03-01T10:03:34.357Z,9.74
2024-03-01T10:04:41.742Z,9.76
2024-03-01T10:05:55.442Z,9.67
2024-03-01T10:07:27.394Z,9.65
2024-03-01T10:08:36.478Z,9.68
2024-03-01T10:10:02.079Z,9.54
2024-03-01T10:11:13.376Z,9.54
2024-03-01T10:12:28.701Z,9.72
2024-03-01T10:13:36.887Z,9.62
2024-03-01T10:14:52.444Z,9.84
2024-03-01T10:16:14.721Z,9.90
2024-03-01T10:17:34.489Z,9.88
2024-03-01T10:18:47.766Z,9.92
2024-03-01T10:20:07.358Z,9.83
2024-03-01T10:21:30.328Z,9.87
2024-03-01T10:22:43.726Z,9.69
2024-03-01T10:23:49.291Z,9.80
2024-03-01T10:25:12.409Z,9.72
2024-03-01T10:26:31.319Z,9.75
2024-03-01T10:27:31.219Z,9.91
2024-03-01T10:28:39.782Z,10.10
2024-03-01T10:29:47.738Z,10.05
2024-03-01T10:30:58.156Z,9.92
2024-03-01T10:31:54.720Z,9.89
2024-03-01T10:33:21.488Z,10.15
2024-03-01T10:34:30.326Z,10.06
2024-03-01T10:35:39.189Z,10.13
2024-03-01T10:36:49.987Z,10.06
2024-03-01T10:38:09.038Z,9.99
2024-03-01T10:39:27.388Z,10.01
2024-03-01T10:40:26.200Z,9.66
2024-03-01T10:41:46.335Z,9.96
2024-03-01T10:42:47.190Z,9.93
2024-03-01T10:43:53.134Z,9.98
2024-03-01T10:45:07.190Z,9.78
2024-03-01T10:46:13.613Z,9.91
2024-03-01T10:47:23.117Z,9.69
2024-03-01T10:48:19.838Z,9.81
2024-03-01T10:49:47.206Z,9.76
2024-03-01T10:50:56.631Z,9.96
2024-03-01T10:51:58.449Z,10.07
2024-03-01T10:53:03.475Z,9.83
2024-03-01T10:54:05.371Z,9.80
2024-03-01T10:55:06.848Z,9.88
2024-03-01T10:56:07.235Z,9.73
2024-03-01T10:57:08.626Z,9.79
2024-03-01T10:58:08.019Z,9.89
2024-03-01T10:59:15.911Z,9.93
2024-03-01T11:00:14.410Z,10.04
2024-03-01T11:01:29.103Z,9.76
2024-03-01T11:02:30.959Z,9.90
2024-03-01T11:03:27.568Z,10.05
2024-03-01T11:04:34.530Z,9.52
2024-03-01T11:05:53.469Z,9.96
2024-03-01T11:07:10.318Z,10.02
2024-03-01T11:08:22.298Z,9.82
2024-03-01T11:09:31.007Z,9.87
2024-03-01T11:10:40.960Z,9.95
2024-03-01T11:11:52.148Z,9.93
2024-03-01T11:13:03.270Z,9.79
2024-03-01T11:14:03.665Z,9.74
2024-03-01T11:15:22.271Z,9.93
2024-03-01T11:16:24.791Z,10.14
2024-03-01T11:17:26.643Z,10.05
2024-03-01T11:18:31.861Z,10.17
2024-03-01T11:19:33.246Z,10.32
2024-03-01T11:20:35.893Z,10.31
2024-03-01T11:21:33.837Z,10.08
2024-03-01T11:22:32.886Z,9.97
2024-03-01T11:23:41.068Z,10.07
2024-03-01T11:24:44.665Z,10.12
2024-03-01T11:26:22.284Z,10.16
2024-03-01T11:27:27.158Z,9.94
2024-03-01T11:28:26.004Z,10.08
2024-03-01T11:29:54.427Z,10.10
2024-03-01T11:30:55.557Z,10.13
2024-03-01T11:32:07.584Z,10.09
2024-03-01T11:33:05.191Z,10.31
2024-03-01T11:34:06.697Z,10.18
2024-03-01T11:35:23.902Z,10.05
2024-03-01T11:36:23.293Z,10.27
2024-03-01T11:37:26.044Z,10.37
2024-03-01T11:38:41.015Z,10.64
2024-03-01T11:39:50.303Z,11.05
2024-03-01T11:40:53.159Z,10.89
2024-03-01T11:42:27.817Z,10.74
2024-03-01T11:43:59.685Z,10.65
2024-03-01T11:45:22.739Z,10.76
2024-03-01T11:46:22.982Z,10.65
2024-03-01T11:47:24.111Z,10.84
2024-03-01T11:48:39.298Z,10.91
2024-03-01T11:49:54.838Z,11.18
2024-03-01T11:50:51.454Z,10.76
2024-03-01T11:52:06.548Z,10.69
2024-03-01T11:53:14.799Z,10.50
2024-03-01T11:54:48.991Z,10.77
2024-03-01T11:56:16.289Z,10.62
2024-03-01T11:57:25.066Z,10.78
2024-03-01T11:58:37.683Z,10.94
2024-03-01T12:00:11.194Z,10.82
2024-03-01T12:01:32.328Z,10.79
2024-03-01T12:03:26.130Z,10.38
2024-03-01T12:04:48.993Z,10.36
2024-03-01T12:06:13.077Z,10.40
2024-03-01T12:07:45.592Z,10.57
2024-03-01T12:09:10.088Z,10.73
2024-03-01T12:10:09.511Z,10.74
2024-03-01T12:11:29.858Z,10.65
2024-03-01T12:12:59.442Z,10.49
2024-03-01T12:13:58.955Z,10.72
2024-03-01T12:15:10.229Z,10.64
2024-03-01T12:16:13.799Z,10.68
2024-03-01T12:17:20.284Z,10.39
2024-03-01T12:18:22.808Z,10.36
2024-03-01T12:19:39.225Z,10.55
2024-03-01T12:20:41.534Z,10.41
2024-03-01T12:21:38.618Z,10.49
2024-03-01T12:22:50.315Z,10.54
2024-03-01T12:24:08.613Z,10.71
2024-03-01T12:25:05.838Z,11.13
2024-03-01T12:26:03.582Z,11.32
2024-03-01T12:27:04.432Z,11.36
2024-03-01T12:28:33.541Z,11.00
2024-03-01T12:29:54.145Z,11.09
2024-03-01T12:31:03.226Z,10.68
2024-03-01T12:32:37.140Z,10.71
2024-03-01T12:33:40.825Z,10.81
2024-03-01T12:34:49.399Z,11.03
2024-03-01T12:36:07.660Z,10.84
2024-03-01T12:37:08.130Z,11.11
2024-03-01T12:38:30.696Z,11.03
2024-03-01T12:39:28.988Z,11.09
2024-03-01T12:40:32.731Z,10.93
2024-03-01T12:42:07.137Z,11.38
2024-03-01T12:43:31.847Z,11.12
2024-03-01T12:44:45.579Z,11.26
2024-03-01T12:46:04.461Z,11.27
2024-03-01T12:47:23.235Z,11.26
2024-03-01T12:48:45.660Z,10.80
2024-03-01T12:50:16.831Z,10.93
2024-03-01T12:51:17.439Z,11.01
2024-03-01T12:52:19.692Z,10.93
2024-03-01T12:53:34.803Z,10.96
2024-03-01T12:54:45.531Z,10.84
2024-03-01T12:56:07.272Z,10.93
2024-03-01T12:57:17.625Z,10.66
2024-03-01T12:58:30.263Z,10.89
2024-03-01T12:59:33.003Z,10.86
2024-03-01T13:00:36.971Z,10.72
2024-03-01T13:01:55.288Z,10.56
2024-03-01T13:02:51.911Z,10.52
2024-03-01T13:04:30.666Z,10.88
2024-03-01T13:05:28.007Z,10.71
2024-03-01T13:06:26.026Z,10.87
2024-03-01T13:07:25.835Z,10.83
2024-03-01T13:08:31.979Z,10.97
2024-03-01T13:09:32.309Z,10.97
2024-03-01T13:10:30.538Z,10.97
2024-03-01T13:11:30.068Z,11.00
2024-03-01T13:12:28.502Z,10.74
2024-03-01T13:13:30.823Z,10.65
2024-03-01T13:14:36.862Z,10.70
2024-03-01T13:15:39.913Z,10.89
2024-03-01T13:16:37.700Z,10.79
2024-03-01T13:17:42.381Z,10.91
2024-03-01T13:18:48.988Z,10.86
2024-03-01T13:20:02.257Z,10.74
2024-03-01T13:21:17.408Z,10.81
2024-03-01T13:22:15.921Z,10.62
2024-03-01T13:23:40.849Z,10.61
2024-03-01T13:24:47.480Z,10.47
2024-03-01T13:25:54.490Z,10.55
2024-03-01T13:27:02.754Z,10.53
2024-03-01T13:28:09.089Z,10.76
2024-03-01T13:29:09.192Z,10.76
2024-03-01T13:30:22.204Z,10.86